Time;durP1;ratioP1;P1;durP2;ratioP2;P2;SDS_P1;SDS_P2;PMS_P1;PMS_P2;Temp;Humidity;BMP_temperature;BMP_pressure;BME280_temperature;BME280_humidity;BME280_pressure;Samples;Min_cycle;Max_cycle;Signal;HPM_P1;HPM_P2
2021/04/23 00:00:36;;;;;;;46.90;31.10;;;;;;;11.00;84.17;98815.53;1827206;78;21166;-59
2021/04/23 00:03:44;;;;;;;44.15;31.10;;;;;;;10.98;84.26;98808.62;1826929;77;21588;-57
2021/04/23 00:06:31;;;;;;;31.50;22.58;;;;;;;10.94;84.35;98802.59;1827378;77;21260;-59
2021/04/23 00:09:07;;;;;;;35.38;24.37;;;;;;;10.92;84.44;98796.98;1827389;77;21636;-57
2021/04/23 00:11:45;;;;;;;28.15;20.90;;;;;;;10.90;84.48;98804.70;1815867;78;21723;-57
2021/04/23 00:14:16;;;;;;;31.52;22.42;;;;;;;10.85;84.54;98798.21;1812814;78;21100;-58
2021/04/23 00:16:45;;;;;;;28.60;21.40;;;;;;;10.82;84.73;98787.02;1812814;79;21147;-58
2021/04/23 00:19:21;;;;;;;26.65;20.70;;;;;;;10.77;84.88;98793.86;1812782;78;21139;-60
2021/04/23 00:21:50;;;;;;;29.67;21.15;;;;;;;10.72;84.86;98792.53;1813092;78;21135;-58
2021/04/23 00:24:18;;;;;;;30.48;20.35;;;;;;;10.63;84.99;98790.75;1812760;78;21170;-58
2021/04/23 00:26:47;;;;;;;25.37;18.92;;;;;;;10.58;85.16;98798.89;1812870;79;21147;-58
2021/04/23 00:29:16;;;;;;;25.75;18.35;;;;;;;10.58;85.34;98804.45;1813112;78;21127;-60
2021/04/23 00:34:34;;;;;;;22.55;17.85;;;;;;;10.55;85.69;98807.87;1812855;79;21123;-58
2021/04/23 00:37:01;;;;;;;25.97;18.95;;;;;;;10.54;85.87;98815.18;1812959;79;21143;-59
2021/04/23 00:39:29;;;;;;;28.65;20.40;;;;;;;10.52;86.11;98815.59;1812948;78;21273;-58
2021/04/23 00:41:58;;;;;;;25.15;18.92;;;;;;;10.50;86.36;98821.16;1813049;79;21116;-58
2021/04/23 00:44:26;;;;;;;24.57;18.77;;;;;;;10.45;86.65;98828.42;1812932;79;21150;-58
2021/04/23 00:46:53;;;;;;;25.97;19.27;;;;;;;10.40;87.03;98839.98;1812711;78;21293;-59
2021/04/23 00:49:21;;;;;;;26.52;19.10;;;;;;;10.36;87.37;98838.23;1812945;78;21127;-57
2021/04/23 00:51:54;;;;;;;25.82;19.80;;;;;;;10.35;87.66;98840.36;1813050;78;21265;-60
2021/04/23 00:54:22;;;;;;;24.85;19.60;;;;;;;10.36;87.87;98846.84;1813018;79;21668;-60
2021/04/23 00:56:53;;;;;;;30.43;21.75;;;;;;;10.39;88.01;98844.28;1812807;78;21119;-59
2021/04/23 00:59:21;;;;;;;29.90;23.60;;;;;;;10.39;88.04;98844.71;1812857;79;21284;-59
2021/04/23 01:02:00;;;;;;;33.00;23.30;;;;;;;10.37;88.10;98841.25;1813045;78;21123;-58
2021/04/23 01:04:30;;;;;;;26.60;19.75;;;;;;;10.35;88.16;98846.81;1812864;78;21249;-60
2021/04/23 01:06:58;;;;;;;27.70;18.95;;;;;;;10.35;88.18;98844.23;1812892;78;21175;-58
2021/04/23 01:09:30;;;;;;;23.42;18.55;;;;;;;10.34;88.18;98838.21;1813067;79;21127;-58
2021/04/23 01:12:00;;;;;;;29.60;21.17;;;;;;;10.33;88.23;98838.18;1812949;79;21178;-58
2021/04/23 01:14:28;;;;;;;23.73;18.12;;;;;;;10.33;88.26;98839.47;1813021;79;21538;-58
2021/04/23 01:16:56;;;;;;;24.35;17.98;;;;;;;10.33;88.32;98843.34;1813031;79;21208;-57
2021/04/23 01:19:27;;;;;;;22.50;18.07;;;;;;;10.27;88.34;98850.56;1812737;79;21253;-57
2021/04/23 01:21:56;;;;;;;22.73;17.82;;;;;;;10.21;88.51;98846.22;1813116;78;21304;-57
2021/04/23 01:24:24;;;;;;;22.90;17.20;;;;;;;10.20;88.69;98847.48;1812974;78;21284;-58
2021/04/23 01:26:55;;;;;;;20.77;16.70;;;;;;;10.20;88.84;98843.21;1812782;78;21100;-57
2021/04/23 01:29:25;;;;;;;21.00;15.85;;;;;;;10.20;88.94;98838.05;1812749;79;21265;-59
2021/04/23 01:31:56;;;;;;;20.02;15.95;;;;;;;10.17;89.06;98842.30;1812958;78;21350;-58
2021/04/23 01:34:32;;;;;;;22.87;17.33;;;;;;;10.13;89.22;98841.84;1813008;79;21150;-59
2021/04/23 01:37:01;;;;;;;24.43;16.25;;;;;;;10.10;89.41;98843.96;1813116;78;21131;-59
2021/04/23 01:39:32;;;;;;;18.75;15.08;;;;;;;10.10;89.59;98836.23;1812704;78;21103;-59
2021/04/23 01:42:00;;;;;;;19.37;15.23;;;;;;;10.04;89.77;98837.43;1813190;79;21155;-60
2021/04/23 01:44:29;;;;;;;20.43;14.58;;;;;;;9.95;90.02;98839.92;1812732;79;21139;-60
2021/04/23 01:46:58;;;;;;;21.52;15.10;;;;;;;9.86;90.57;98841.09;1813075;78;21138;-59
2021/04/23 01:49:26;;;;;;;20.65;15.83;;;;;;;9.77;91.12;98827.26;1813021;79;21134;-58
2021/04/23 01:52:01;;;;;;;21.70;15.75;;;;;;;9.64;91.79;98830.54;1812867;78;21131;-59
2021/04/23 01:54:30;;;;;;;20.70;15.58;;;;;;;9.54;92.51;98836.39;1812805;78;21276;-59
2021/04/23 01:56:58;;;;;;;19.95;14.53;;;;;;;9.46;92.92;98847.02;1812718;78;21316;-59
2021/04/23 01:59:27;;;;;;;20.50;15.85;;;;;;;9.43;93.50;98834.11;1812740;79;21277;-58
2021/04/23 02:01:58;;;;;;;18.50;13.28;;;;;;;9.38;94.10;98840.91;1812935;78;21127;-59
2021/04/23 02:04:27;;;;;;;15.83;9.70;;;;;;;9.27;93.85;98840.34;1813013;78;21545;-58
2021/04/23 02:06:58;;;;;;;10.68;7.35;;;;;;;8.95;87.94;98857.02;1812762;78;21079;-59
2021/04/23 02:09:26;;;;;;;12.15;7.62;;;;;;;8.64;84.71;98874.09;1812735;79;21119;-58
2021/04/23 02:11:54;;;;;;;12.55;7.22;;;;;;;8.39;83.96;98870.22;1822314;77;21138;-59
2021/04/23 02:14:24;;;;;;;11.97;7.20;;;;;;;8.19;83.74;98890.41;1827241;78;21127;-60
2021/04/23 02:16:52;;;;;;;11.93;7.90;;;;;;;7.97;83.76;98897.25;1827564;78;21146;-58
2021/04/23 02:19:22;;;;;;;14.28;6.58;;;;;;;7.83;84.34;98907.22;1827533;77;21142;-58
2021/04/23 02:21:51;;;;;;;9.93;7.08;;;;;;;7.76;84.81;98890.83;1827308;78;21213;-58
2021/04/23 02:24:19;;;;;;;9.55;6.10;;;;;;;7.65;84.63;98895.28;1827229;78;21304;-58
2021/04/23 02:26:48;;;;;;;13.83;7.42;;;;;;;7.54;84.45;98880.51;1827222;78;21154;-58
2021/04/23 02:29:18;;;;;;;11.28;6.55;;;;;;;7.43;84.48;98898.68;1827439;78;21130;-57
2021/04/23 02:31:50;;;;;;;9.78;6.40;;;;;;;7.33;84.49;98900.59;1827423;78;21280;-59
2021/04/23 02:34:23;;;;;;;9.75;6.80;;;;;;;7.27;84.35;98899.14;1827220;77;21146;-58
2021/04/23 02:36:51;;;;;;;10.08;6.25;;;;;;;7.25;84.58;98909.39;1827324;77;21162;-58
2021/04/23 02:39:20;;;;;;;17.27;6.90;;;;;;;7.22;84.59;98905.88;1827419;77;21154;-59
2021/04/23 02:41:52;;;;;;;9.85;6.42;;;;;;;7.15;84.43;98913.44;1827495;77;21122;-59
2021/04/23 02:44:21;;;;;;;11.60;7.00;;;;;;;7.07;83.94;98895.72;1827205;77;21296;-58
2021/04/23 02:46:49;;;;;;;12.35;6.65;;;;;;;6.97;83.36;98924.52;1827390;78;21264;-58
2021/04/23 02:49:17;;;;;;;11.30;6.70;;;;;;;6.87;83.55;98925.13;1827186;78;21115;-58
2021/04/23 02:51:48;;;;;;;9.75;6.37;;;;;;;6.84;83.98;98934.03;1826961;78;21561;-60
2021/04/23 02:54:20;;;;;;;15.88;8.18;;;;;;;6.80;84.21;98945.06;1827217;77;21127;-59
2021/04/23 02:56:48;;;;;;;13.32;6.50;;;;;;;6.74;84.38;98931.25;1827622;78;21154;-58
2021/04/23 02:59:17;;;;;;;10.25;6.10;;;;;;;6.68;84.43;98938.77;1827376;78;21119;-59
2021/04/23 03:01:49;;;;;;;13.10;6.58;;;;;;;6.67;84.55;98965.67;1827346;77;21123;-58
2021/04/23 03:04:17;;;;;;;11.65;6.92;;;;;;;6.58;84.54;98964.13;1827402;78;21535;-58
2021/04/23 03:06:45;;;;;;;13.18;6.47;;;;;;;6.51;84.84;98966.55;1827490;77;21252;-59
2021/04/23 03:09:15;;;;;;;11.88;6.20;;;;;;;6.48;85.14;98977.11;1827432;77;21107;-60
2021/04/23 03:11:43;;;;;;;10.48;6.00;;;;;;;6.46;85.35;98962.09;1820706;78;21155;-60
2021/04/23 03:14:12;;;;;;;11.18;5.87;;;;;;;6.37;85.19;98981.09;1812811;79;21585;-60
2021/04/23 03:16:43;;;;;;;10.28;6.22;;;;;;;6.28;85.42;98982.57;1812811;78;21162;-58
2021/04/23 03:19:13;;;;;;;9.35;5.45;;;;;;;6.23;85.63;98993.11;1813021;78;21294;-58
2021/04/23 03:21:43;;;;;;;12.25;6.67;;;;;;;6.17;85.55;98987.78;1812790;79;21136;-58
2021/04/23 03:24:12;;;;;;;11.73;6.08;;;;;;;6.15;86.03;98991.12;1812919;79;21147;-58
2021/04/23 03:26:43;;;;;;;10.72;5.78;;;;;;;6.14;86.34;99004.78;1812951;78;21154;-59
2021/04/23 03:29:14;;;;;;;15.13;6.17;;;;;;;6.13;86.13;98985.98;1812773;79;21124;-58
2021/04/23 03:31:42;;;;;;;10.45;6.03;;;;;;;6.08;86.24;99008.00;1812975;78;21546;-59
2021/04/23 03:34:10;;;;;;;13.30;5.62;;;;;;;6.05;86.48;98998.95;1813000;78;21264;-59
2021/04/23 03:36:39;;;;;;;10.20;5.30;;;;;;;6.00;86.57;99009.05;1812801;79;21281;-59
2021/04/23 03:39:11;;;;;;;11.93;5.60;;;;;;;6.01;86.56;99009.95;1813080;79;21688;-59
2021/04/23 03:41:41;;;;;;;10.55;5.00;;;;;;;6.00;86.66;99006.91;1813076;78;21143;-60
2021/04/23 03:44:10;;;;;;;11.95;5.95;;;;;;;5.90;86.60;99012.55;1812798;79;21280;-59
2021/04/23 03:46:38;;;;;;;15.18;5.72;;;;;;;5.82;86.71;99011.91;1813026;79;21142;-58
2021/04/23 03:49:06;;;;;;;11.33;5.72;;;;;;;5.72;87.28;99023.10;1812786;78;21273;-58
2021/04/23 03:51:35;;;;;;;9.10;5.30;;;;;;;5.65;87.75;99027.18;1812951;78;21278;-58
2021/04/23 03:54:04;;;;;;;8.95;5.00;;;;;;;5.61;88.29;99022.77;1812876;79;21273;-60
2021/04/23 03:56:32;;;;;;;9.70;5.10;;;;;;;5.58;88.77;99023.96;1813068;78;21640;-62
2021/04/23 03:58:59;;;;;;;10.55;5.83;;;;;;;5.56;89.37;99026.88;1812754;79;21134;-60
2021/04/23 04:01:30;;;;;;;11.40;5.90;;;;;;;5.57;89.53;99033.72;1812986;79;21147;-59
2021/04/23 04:03:58;;;;;;;10.35;5.35;;;;;;;5.54;89.89;99033.63;1813039;78;21668;-59
2021/04/23 04:06:27;;;;;;;11.57;5.85;;;;;;;5.51;90.21;99033.54;1812712;78;21135;-61
2021/04/23 04:08:55;;;;;;;10.00;5.62;;;;;;;5.57;90.47;99035.00;1812938;78;21131;-59
2021/04/23 04:11:23;;;;;;;11.43;5.58;;;;;;;5.61;90.45;99032.59;1815609;78;21137;-58
2021/04/23 04:13:52;;;;;;;12.25;5.92;;;;;;;5.66;90.67;99028.91;1827050;78;21106;-57
2021/04/23 04:16:20;;;;;;;10.53;5.30;;;;;;;5.69;90.56;99026.44;1827394;77;21150;-58
2021/04/23 04:18:48;;;;;;;10.43;6.00;;;;;;;5.68;90.40;99036.23;1827191;78;21172;-60
2021/04/23 04:21:17;;;;;;;10.35;6.05;;;;;;;5.66;90.60;99034.03;1827154;78;21154;-57
2021/04/23 04:23:45;;;;;;;16.55;7.78;;;;;;;5.64;90.64;99030.12;1827073;78;21146;-59
2021/04/23 04:26:13;;;;;;;9.48;5.80;;;;;;;5.63;90.62;99033.94;1827310;78;21263;-61
2021/04/23 04:28:41;;;;;;;10.30;5.78;;;;;;;5.65;90.85;99039.98;1827412;78;21224;-58
2021/04/23 04:31:09;;;;;;;13.32;6.60;;;;;;;5.70;90.70;99034.98;1827371;77;21138;-59
2021/04/23 04:33:39;;;;;;;11.18;6.55;;;;;;;5.73;90.78;99038.52;1825711;78;21588;-60
2021/04/23 04:36:09;;;;;;;13.98;7.22;;;;;;;5.76;90.80;99037.75;1827393;78;21280;-60
2021/04/23 04:38:36;;;;;;;11.18;6.28;;;;;;;5.81;90.70;99038.34;1827081;78;21213;-60
2021/04/23 04:41:04;;;;;;;12.63;6.62;;;;;;;5.87;90.69;99032.53;1827388;77;21137;-61
2021/04/23 04:43:32;;;;;;;14.60;6.58;;;;;;;5.94;90.64;99043.47;1827311;77;21135;-61
2021/04/23 04:46:00;;;;;;;12.78;6.50;;;;;;;5.99;90.34;99037.20;1827089;77;21123;-62
2021/04/23 04:48:28;;;;;;;11.20;6.05;;;;;;;6.00;89.98;99037.66;1827272;78;21303;-61
2021/04/23 04:50:59;;;;;;;12.43;6.15;;;;;;;6.00;89.84;99041.49;1817770;78;21655;-61
2021/04/23 04:53:27;;;;;;;10.78;6.05;;;;;;;6.01;89.89;99045.81;1811193;78;21119;-62
2021/04/23 04:55:58;;;;;;;12.90;6.62;;;;;;;6.02;90.12;99051.38;1812277;78;21193;-61
2021/04/23 04:58:32;;;;;;;12.85;6.22;;;;;;;6.05;90.23;99054.03;1751300;82;21134;-59
2021/04/23 05:01:04;;;;;;;12.28;6.22;;;;;;;6.09;90.21;99058.44;1766216;80;21312;-64
2021/04/23 05:03:33;;;;;;;12.37;6.53;;;;;;;6.12;90.00;99050.84;1788838;80;21154;-61
2021/04/23 05:06:01;;;;;;;10.53;6.20;;;;;;;6.15;89.94;99061.59;1789098;80;21305;-61
2021/04/23 05:08:28;;;;;;;10.32;5.53;;;;;;;6.22;89.93;99060.53;1788888;80;21150;-60
2021/04/23 05:10:57;;;;;;;12.63;5.60;;;;;;;6.38;89.95;99054.58;1788827;80;21158;-63
2021/04/23 05:13:24;;;;;;;13.05;7.00;;;;;;;6.50;89.39;99048.53;1788880;80;21370;-63
2021/04/23 05:15:52;;;;;;;14.03;6.10;;;;;;;6.56;88.42;99049.11;1788780;80;21281;-63
2021/04/23 05:18:19;;;;;;;10.40;6.30;;;;;;;6.60;88.16;99054.38;1789014;80;21186;-62
2021/04/23 05:20:47;;;;;;;10.85;6.12;;;;;;;6.65;88.10;99050.23;1789046;80;21178;-63
2021/04/23 05:23:15;;;;;;;8.95;5.42;;;;;;;6.72;87.76;99056.00;1788878;80;21158;-65
2021/04/23 05:25:43;;;;;;;12.07;5.92;;;;;;;6.76;86.92;99056.94;1789125;80;21224;-63
2021/04/23 05:28:11;;;;;;;8.30;4.97;;;;;;;6.77;86.17;99055.23;1788939;80;21308;-61
2021/04/23 05:30:40;;;;;;;9.30;4.58;;;;;;;6.78;85.64;99058.28;1788787;80;21287;-62
2021/04/23 05:33:09;;;;;;;12.25;5.78;;;;;;;6.81;85.51;99054.51;1788996;80;21292;-64
2021/04/23 05:35:39;;;;;;;10.25;5.70;;;;;;;6.84;85.58;99065.70;1789044;80;21293;-62
2021/04/23 05:38:08;;;;;;;10.48;5.22;;;;;;;6.89;85.55;99063.27;1789043;80;21272;-63
2021/04/23 05:40:43;;;;;;;8.63;5.78;;;;;;;6.94;85.37;99062.98;1789006;80;21292;-63
2021/04/23 05:43:13;;;;;;;11.80;4.95;;;;;;;6.98;84.93;99062.67;1788794;80;21123;-62
2021/04/23 05:45:44;;;;;;;10.98;5.05;;;;;;;7.03;84.98;99061.09;1789061;80;21167;-60
2021/04/23 05:48:15;;;;;;;9.83;5.70;;;;;;;7.11;84.52;99065.59;1759540;80;21280;-61
2021/04/23 05:50:45;;;;;;;9.68;4.85;;;;;;;7.26;84.61;99065.13;1757410;81;21190;-60
2021/04/23 05:53:14;;;;;;;11.03;6.60;;;;;;;7.43;84.19;99066.84;1757334;81;21162;-68
2021/04/23 05:55:43;;;;;;;12.40;7.22;;;;;;;7.51;83.58;99069.61;1770054;80;21126;-57
2021/04/23 05:58:11;;;;;;;16.27;9.80;;;;;;;7.64;82.58;99074.62;1757572;80;21168;-56
2021/04/23 06:00:42;;;;;;;18.85;9.70;;;;;;;7.65;81.89;99067.36;1757456;80;21188;-57
2021/04/23 06:03:11;;;;;;;17.00;10.95;;;;;;;7.68;81.82;99073.85;1757592;80;21584;-65
2021/04/23 06:05:40;;;;;;;15.95;10.15;;;;;;;7.79;81.70;99073.71;1757199;80;21295;-59
2021/04/23 06:08:11;;;;;;;17.85;8.15;;;;;;;7.98;81.64;99077.56;1757282;82;21330;-57
2021/04/23 06:10:42;;;;;;;13.43;6.00;;;;;;;8.19;81.30;99079.36;1772270;80;21123;-58
2021/04/23 06:13:11;;;;;;;11.55;6.20;;;;;;;8.32;80.87;99084.34;1758679;80;21162;-63
2021/04/23 06:15:39;;;;;;;11.78;6.37;;;;;;;8.47;80.02;99084.70;1742389;81;21202;-59
2021/04/23 06:18:11;;;;;;;10.88;6.55;;;;;;;8.61;79.02;99085.41;1780918;80;21305;-59
2021/04/23 06:20:43;;;;;;;13.78;8.10;;;;;;;8.73;78.16;99085.66;1781139;79;21708;-60
2021/04/23 06:23:12;;;;;;;13.35;7.42;;;;;;;8.84;77.62;99089.30;1780701;80;21107;-58
2021/04/23 06:25:40;;;;;;;12.07;7.58;;;;;;;9.05;77.35;99087.56;1780772;80;21153;-63
2021/04/23 06:28:09;;;;;;;12.55;7.53;;;;;;;9.28;76.88;99088.41;1780922;80;21182;-57
2021/04/23 06:30:39;;;;;;;13.43;5.87;;;;;;;9.67;76.20;99077.94;1780869;80;21150;-58
2021/04/23 06:33:15;;;;;;;16.70;6.58;;;;;;;9.93;73.67;99090.38;1781133;79;21155;-57
2021/04/23 06:35:38;;;;;;;16.93;6.85;;;;;;;10.01;72.40;99086.19;1795958;79;21273;-62
2021/04/23 06:38:05;;;;;;;9.63;5.35;;;;;;;9.98;71.88;99091.31;1797175;79;21138;-61
2021/04/23 06:40:37;;;;;;;8.45;5.30;;;;;;;10.18;71.52;99088.61;1795246;79;21253;-58
2021/04/23 06:43:06;;;;;;;12.73;5.42;;;;;;;10.31;70.88;99089.68;1789507;79;21142;-62
2021/04/23 06:45:35;;;;;;;9.68;4.95;;;;;;;10.41;68.96;99089.39;1757836;81;21200;-61
2021/04/23 06:48:07;;;;;;;9.03;4.50;;;;;;;10.54;68.49;99092.56;1798500;78;21147;-62
2021/04/23 06:50:35;;;;;;;12.37;6.12;;;;;;;10.92;67.65;99092.17;1796163;77;21181;-61
2021/04/23 06:53:03;;;;;;;12.15;5.65;;;;;;;11.32;67.18;99097.75;1791803;79;21335;-64
2021/04/23 06:55:31;;;;;;;9.58;5.20;;;;;;;11.71;66.13;99097.27;1806512;79;21257;-62
2021/04/23 06:57:59;;;;;;;9.05;4.85;;;;;;;11.94;63.95;99103.95;1809448;79;21253;-62
2021/04/23 07:00:31;;;;;;;8.78;4.97;;;;;;;12.12;63.68;99099.77;1796874;79;21164;-62
2021/04/23 07:03:00;;;;;;;7.90;4.70;;;;;;;12.07;63.14;99106.64;1793443;79;21158;-61
2021/04/23 07:05:29;;;;;;;9.68;4.62;;;;;;;11.97;64.45;99105.70;1791422;78;21154;-64
2021/04/23 07:07:59;;;;;;;10.53;4.92;;;;;;;11.88;63.42;99103.02;1795287;79;21163;-63
2021/04/23 07:10:28;;;;;;;9.83;4.92;;;;;;;11.59;62.47;99107.93;1798477;79;21162;-65
2021/04/23 07:12:58;;;;;;;9.03;4.67;;;;;;;11.40;63.18;99097.43;1806726;79;21154;-62
2021/04/23 07:15:31;;;;;;;9.95;4.72;;;;;;;11.59;62.80;99109.22;1798620;79;21285;-62
2021/04/23 07:18:01;;;;;;;9.30;4.28;;;;;;;11.80;63.12;99111.13;1797546;79;21714;-63
2021/04/23 07:20:32;;;;;;;11.12;4.75;;;;;;;12.30;62.66;99110.23;1795548;79;21130;-63
2021/04/23 07:23:01;;;;;;;9.10;4.60;;;;;;;12.63;61.73;99112.58;1795659;78;21138;-63
2021/04/23 07:25:29;;;;;;;9.55;4.45;;;;;;;12.64;60.87;99115.59;1795399;78;21249;-62
2021/04/23 07:27:59;;;;;;;7.58;4.03;;;;;;;12.51;60.55;99105.61;1797609;79;21300;-63
2021/04/23 07:30:31;;;;;;;8.43;4.30;;;;;;;12.21;60.74;99114.05;1789734;79;21291;-61
2021/04/23 07:32:59;;;;;;;12.90;5.00;;;;;;;11.74;61.58;99114.09;1796185;79;21146;-72
2021/04/23 07:35:28;;;;;;;10.53;5.20;;;;;;;11.45;62.78;99112.55;1794211;79;21135;-67
2021/04/23 07:37:58;;;;;;;8.78;5.08;;;;;;;11.48;63.25;99115.59;1796533;79;21134;-68
2021/04/23 07:40:28;;;;;;;8.58;4.40;;;;;;;11.43;63.33;99114.68;1791781;78;21214;-70
2021/04/23 07:42:56;;;;;;;7.78;4.60;;;;;;;11.41;63.72;99112.06;1765132;80;21264;-68
2021/04/23 07:45:23;;;;;;;7.78;3.72;;;;;;;11.55;63.30;99110.92;1766832;80;21288;-65
2021/04/23 07:47:52;;;;;;;9.38;4.65;;;;;;;11.44;63.62;99111.23;1764778;79;21115;-66
2021/04/23 07:50:23;;;;;;;10.85;5.20;;;;;;;11.37;63.19;99110.32;1764584;80;21166;-64
2021/04/23 07:52:53;;;;;;;12.65;4.28;;;;;;;11.18;63.54;99108.39;1766498;80;21268;-66
2021/04/23 07:55:23;;;;;;;9.68;4.65;;;;;;;11.17;63.54;99108.81;1766263;79;21288;-64
2021/04/23 07:57:54;;;;;;;9.13;4.28;;;;;;;11.14;63.21;99110.05;1764183;80;21138;-64
2021/04/23 08:00:25;;;;;;;10.80;4.15;;;;;;;10.96;63.61;99109.84;1764045;80;21285;-64
2021/04/23 08:02:54;;;;;;;10.05;4.90;;;;;;;10.95;63.96;99114.16;1767042;80;21692;-65
2021/04/23 08:05:25;;;;;;;9.70;4.58;;;;;;;10.99;64.08;99116.33;1766957;79;21174;-65
2021/04/23 08:07:54;;;;;;;9.70;4.37;;;;;;;11.04;63.87;99114.67;1764455;79;21171;-66
2021/04/23 08:10:24;;;;;;;12.23;4.30;;;;;;;11.10;63.87;99113.47;1763571;79;21178;-64
2021/04/23 08:12:52;;;;;;;10.25;4.28;;;;;;;11.04;63.64;99107.81;1766083;79;21734;-54
2021/04/23 08:15:26;;;;;;;9.13;4.03;;;;;;;10.98;63.62;99107.73;1766560;79;21576;-59
2021/04/23 08:17:57;;;;;;;6.17;4.03;;;;;;;10.95;63.69;99107.70;1765068;80;21154;-65
2021/04/23 08:20:26;;;;;;;7.17;4.33;;;;;;;11.09;63.87;99111.72;1763587;80;21157;-68
2021/04/23 08:22:56;;;;;;;8.18;4.25;;;;;;;11.32;63.11;99110.67;1762618;79;21076;-68
2021/04/23 08:25:26;;;;;;;7.92;4.42;;;;;;;11.53;62.82;99113.05;1766835;80;21099;-65
2021/04/23 08:27:55;;;;;;;7.83;3.77;;;;;;;12.05;62.17;99110.92;1763479;79;21297;-66
2021/04/23 08:30:27;;;;;;;7.30;3.40;;;;;;;12.78;60.84;99106.18;1761832;79;21327;-67
2021/04/23 08:32:58;;;;;;;9.50;3.42;;;;;;;13.46;58.82;99112.47;1765201;80;21142;-73
2021/04/23 08:35:27;;;;;;;11.90;3.62;;;;;;;13.82;56.34;99117.25;1766815;80;21091;-67
2021/04/23 08:37:56;;;;;;;10.70;3.52;;;;;;;13.98;55.73;99123.30;1758561;80;21162;-66
2021/04/23 08:40:25;;;;;;;8.05;3.40;;;;;;;13.89;54.43;99131.08;1771382;79;21107;-71
2021/04/23 08:42:53;;;;;;;8.85;3.30;;;;;;;13.77;54.53;99124.17;1766802;79;21150;-68
2021/04/23 08:45:22;;;;;;;9.60;3.47;;;;;;;13.86;54.19;99129.34;1761512;79;21268;-68
2021/04/23 08:47:52;;;;;;;7.67;3.42;;;;;;;14.14;53.20;99125.45;1765494;79;21170;-64
2021/04/23 08:50:25;;;;;;;12.78;3.70;;;;;;;14.40;52.67;99124.14;1767816;80;21123;-66
2021/04/23 08:52:54;;;;;;;8.33;3.75;;;;;;;14.86;51.42;99121.88;1763671;80;21138;-67
2021/04/23 08:55:25;;;;;;;8.25;3.35;;;;;;;15.41;50.21;99126.78;1765868;80;21264;-68
2021/04/23 08:57:55;;;;;;;9.88;3.80;;;;;;;15.76;49.19;99118.78;1766820;80;21153;-63
2021/04/23 09:00:23;;;;;;;7.70;3.33;;;;;;;16.07;48.73;99123.73;1763792;80;21131;-67
2021/04/23 09:02:50;;;;;;;10.18;4.17;;;;;;;16.20;47.69;99117.53;1770100;80;21253;-67
2021/04/23 09:05:18;;;;;;;9.25;3.20;;;;;;;16.26;47.90;99118.80;1769530;79;21170;-67
2021/04/23 09:08:07;;;;;;;8.95;3.87;;;;;;;16.39;47.46;99122.59;1771595;79;21103;-65
2021/04/23 09:10:39;;;;;;;10.18;3.85;;;;;;;16.56;45.87;99116.73;1767572;80;21268;-67
2021/04/23 09:13:16;;;;;;;7.58;3.55;;;;;;;16.41;45.14;99110.39;1762972;80;21264;-67
2021/04/23 09:15:46;;;;;;;9.98;3.87;;;;;;;16.11;45.99;99115.03;1764189;80;21537;-64
2021/04/23 09:18:25;;;;;;;6.72;3.75;;;;;;;15.90;46.05;99123.01;1764517;80;21131;-66
2021/04/23 09:21:04;;;;;;;9.68;3.60;;;;;;;15.86;45.68;99123.92;1765743;80;21276;-66
2021/04/23 09:23:32;;;;;;;11.12;3.52;;;;;;;15.69;44.54;99119.70;1765700;79;21142;-66
2021/04/23 09:26:00;;;;;;;7.50;3.42;;;;;;;15.57;44.86;99123.64;1763786;80;21143;-66
2021/04/23 09:28:44;;;;;;;8.03;3.70;;;;;;;15.41;45.42;99123.74;1780845;80;21317;-66
2021/04/23 09:31:31;;;;;;;6.62;3.42;;;;;;;15.49;44.47;99126.73;1775319;79;21331;-66
2021/04/23 09:34:03;;;;;;;8.48;3.65;;;;;;;15.55;43.46;99128.02;1758559;80;21182;-65
2021/04/23 09:36:36;;;;;;;7.12;3.30;;;;;;;15.69;43.76;99134.41;1758812;80;21538;-64
2021/04/23 09:39:20;;;;;;;10.28;3.25;;;;;;;15.69;42.29;99124.01;1767071;80;21188;-65
2021/04/23 09:42:06;;;;;;;6.33;2.92;;;;;;;15.36;42.83;99135.05;1766473;80;21342;-66
2021/04/23 09:44:47;;;;;;;8.03;2.95;;;;;;;15.22;43.23;99135.14;1766854;80;21342;-66
2021/04/23 09:47:21;;;;;;;5.20;2.57;;;;;;;15.04;41.30;99136.09;1767327;79;21297;-61
2021/04/23 09:49:59;;;;;;;7.90;2.92;;;;;;;14.84;41.82;99128.81;1750254;80;21187;-58
2021/04/23 09:52:28;;;;;;;7.22;3.02;;;;;;;14.87;41.36;99125.75;1750221;80;21640;-66
2021/04/23 09:54:59;;;;;;;5.22;2.20;;;;;;;14.74;40.69;99128.83;1750012;80;21183;-62
2021/04/23 09:57:33;;;;;;;8.85;2.90;;;;;;;14.52;41.97;99127.98;1750337;80;21351;-70
2021/04/23 10:00:05;;;;;;;6.17;2.75;;;;;;;14.54;41.72;99120.23;1750160;80;21308;-61
2021/04/23 10:02:32;;;;;;;;;;;;;;;14.41;42.02;99113.31;1772445;80;21528;-71
2021/04/23 10:05:43;;;;;;;9.98;2.83;;;;;;;14.48;42.67;99104.20;1766833;80;20531;-67
2021/04/23 10:08:27;;;;;;;6.05;2.62;;;;;;;14.62;42.52;99100.29;1765682;79;21689;-67
2021/04/23 10:10:58;;;;;;;7.12;2.62;;;;;;;14.81;42.86;99105.00;1760710;80;21143;-65
2021/04/23 10:13:31;;;;;;;5.42;2.67;;;;;;;15.02;43.37;99104.48;1767007;80;21126;-66
2021/04/23 10:16:00;;;;;;;7.15;2.35;;;;;;;15.17;42.28;99105.70;1794906;80;21170;-67
2021/04/23 10:18:29;;;;;;;9.10;2.70;;;;;;;15.20;41.39;99105.68;1794967;79;21375;-63
2021/04/23 10:20:59;;;;;;;7.75;2.60;;;;;;;15.24;41.55;99099.60;1794866;80;21173;-62
2021/04/23 10:23:29;;;;;;;8.30;3.35;;;;;;;15.21;41.99;99099.59;1794949;79;21154;-64
2021/04/23 10:26:00;;;;;;;6.78;2.85;;;;;;;15.05;42.64;99087.13;1794816;78;21158;-63
2021/04/23 10:28:29;;;;;;;5.80;2.50;;;;;;;15.20;41.86;99093.54;1794905;79;21805;-64
2021/04/23 10:31:02;;;;;;;9.10;2.75;;;;;;;15.20;40.85;99097.44;1794834;79;21777;-63
2021/04/23 10:33:33;;;;;;;7.58;2.42;;;;;;;14.91;41.37;99096.74;1794886;80;21131;-62
2021/04/23 10:36:01;;;;;;;9.75;3.12;;;;;;;14.45;42.02;99099.03;1774736;80;21170;-68
2021/04/23 10:38:35;;;;;;;5.67;2.77;;;;;;;13.86;43.15;99091.73;1775752;80;21249;-68
2021/04/23 10:41:08;;;;;;;9.40;2.98;;;;;;;13.30;44.37;99097.73;1786442;80;21639;-66
2021/04/23 10:43:38;;;;;;;7.95;2.90;;;;;;;12.97;45.34;99092.00;1788301;80;21268;-66
2021/04/23 10:46:12;;;;;;;8.40;2.92;;;;;;;12.66;46.41;99091.88;1777080;79;21262;-67
2021/04/23 10:48:46;;;;;;;6.58;2.90;;;;;;;12.38;47.17;99090.88;1778312;79;21280;-59
2021/04/23 10:51:25;;;;;;;6.30;2.60;;;;;;;12.19;47.68;99093.79;1780503;80;21154;-60
2021/04/23 10:53:57;;;;;;;9.53;3.30;;;;;;;12.06;46.56;99095.43;1777292;78;21169;-61
2021/04/23 10:56:38;;;;;;;7.92;3.25;;;;;;;11.86;46.78;99103.03;1757334;80;21258;-58
2021/04/23 10:59:28;;;;;;;8.13;3.05;;;;;;;11.76;46.97;99099.90;1784434;80;21291;-58
2021/04/23 11:02:18;;;;;;;8.43;3.12;;;;;;;11.80;47.06;99102.93;1786879;79;21264;-69
2021/04/23 11:04:56;;;;;;;8.83;3.05;;;;;;;12.01;47.12;99088.06;1776428;80;21130;-66
2021/04/23 11:07:24;;;;;;;8.35;3.50;;;;;;;12.29;46.88;99095.58;1774974;80;21165;-65
2021/04/23 11:10:04;;;;;;;9.88;3.50;;;;;;;12.56;46.80;99082.34;1781212;80;21263;-65
2021/04/23 11:12:32;;;;;;;7.42;3.15;;;;;;;12.80;46.40;99095.41;1780131;80;21154;-66
2021/04/23 11:15:16;;;;;;;9.93;3.45;;;;;;;12.95;45.76;99095.00;1766913;80;21142;-66
2021/04/23 11:17:45;;;;;;;8.85;3.12;;;;;;;13.01;45.64;99088.13;1765463;79;21269;-67
2021/04/23 11:20:27;;;;;;;8.80;3.52;;;;;;;13.22;45.10;99090.34;1767924;80;21154;-68
2021/04/23 11:22:57;;;;;;;;;;;;;;;13.44;44.64;99085.67;1767553;80;21237;-68
2021/04/23 11:25:27;;;;;;;9.83;3.60;;;;;;;13.57;45.01;99080.06;1763789;80;20555;-68
2021/04/23 11:28:05;;;;;;;7.12;3.52;;;;;;;13.81;44.42;99086.12;1765252;80;21823;-68
2021/04/23 11:31:05;;;;;;;9.20;3.77;;;;;;;13.97;43.59;99073.59;1757813;80;21284;-68
2021/04/23 11:33:50;;;;;;;6.25;3.02;;;;;;;14.03;43.56;99083.95;1766030;79;21154;-67
2021/04/23 11:36:27;;;;;;;5.45;2.90;;;;;;;14.18;43.48;99086.09;1766892;80;21347;-69
2021/04/23 11:39:07;;;;;;;7.47;3.10;;;;;;;14.33;42.88;99079.58;1766211;80;21209;-69
2021/04/23 11:41:35;;;;;;;6.37;3.27;;;;;;;14.42;42.44;99082.13;1762714;80;21127;-69
2021/04/23 11:44:03;;;;;;;7.33;3.17;;;;;;;14.41;41.94;99080.86;1764842;80;21584;-67
2021/04/23 11:46:54;;;;;;;8.75;3.67;;;;;;;14.30;41.51;99074.40;1772334;79;21272;-70
2021/04/23 11:49:23;;;;;;;9.70;3.50;;;;;;;14.18;41.50;99075.72;1780527;79;21170;-67
2021/04/23 11:51:53;;;;;;;8.83;3.62;;;;;;;14.07;41.83;99071.41;1780941;79;21158;-69